Time;durP1;ratioP1;P1;durP2;ratioP2;P2;SDS_P1;SDS_P2;PMS_P1;PMS_P2;Temp;Humidity;BMP_temperature;BMP_pressure;BME280_temperature;BME280_humidity;BME280_pressure;Samples;Min_cycle;Max_cycle;Signal;HPM_P1;HPM_P2
2022/10/09 00:00:44;;;;;;;11.90;11.00;;;6.70;99.90;;;;;;5071226;28;20182;-77
2022/10/09 00:03:11;;;;;;;19.23;17.63;;;6.60;99.90;;;;;;5056755;28;20217;-78
2022/10/09 00:05:37;;;;;;;14.13;13.03;;;6.50;99.90;;;;;;5056236;28;20201;-79
2022/10/09 00:08:03;;;;;;;12.40;11.40;;;6.50;99.90;;;;;;5056297;28;20181;-79
2022/10/09 00:10:29;;;;;;;14.93;13.90;;;6.50;99.90;;;;;;5073709;28;20650;-79
2022/10/09 00:12:55;;;;;;;13.10;12.17;;;6.50;99.90;;;;;;5056434;28;20197;-78
2022/10/09 00:15:21;;;;;;;12.90;11.73;;;6.50;99.90;;;;;;5073434;28;20268;-79
2022/10/09 00:17:48;;;;;;;16.63;15.17;;;6.40;99.90;;;;;;5055418;28;20223;-79
2022/10/09 00:20:13;;;;;;;33.80;32.03;;;6.40;99.90;;;;;;5073593;28;20223;-79
2022/10/09 00:22:39;;;;;;;43.83;41.40;;;6.40;99.90;;;;;;5073411;28;20213;-79
2022/10/09 00:25:06;;;;;;;47.17;44.57;;;6.40;99.90;;;;;;5072255;28;20189;-78
2022/10/09 00:27:32;;;;;;;64.20;60.60;;;6.40;99.90;;;;;;5054837;28;20176;-79
2022/10/09 00:29:57;;;;;;;18.33;17.00;;;6.40;99.90;;;;;;5055368;28;20178;-79
2022/10/09 00:32:23;;;;;;;40.70;38.43;;;6.30;99.90;;;;;;5074009;28;20574;-79
2022/10/09 00:34:50;;;;;;;40.90;38.60;;;6.30;99.90;;;;;;5054850;28;20185;-76
2022/10/09 00:37:16;;;;;;;53.37;50.53;;;6.30;99.90;;;;;;5054598;28;20630;-78
2022/10/09 00:39:42;;;;;;;48.10;45.53;;;6.30;99.90;;;;;;5072919;28;20332;-77
2022/10/09 00:42:13;;;;;;;53.97;50.87;;;6.30;99.90;;;;;;5054891;28;20197;-79
2022/10/09 00:44:58;;;;;;;80.07;75.53;;;6.30;99.90;;;;;;5058919;28;20177;-77
2022/10/09 00:47:43;;;;;;;73.23;69.13;;;6.30;99.90;;;;;;5057990;28;20185;-79
2022/10/09 00:50:34;;;;;;;47.10;44.03;;;6.20;99.90;;;;;;5055220;28;20181;-78
2022/10/09 00:53:02;;;;;;;56.57;53.40;;;6.20;99.90;;;;;;5060468;28;20537;-78
2022/10/09 00:55:30;;;;;;;14.73;13.63;;;6.20;99.90;;;;;;5074480;28;20543;-79
2022/10/09 00:57:58;;;;;;;12.17;11.17;;;6.20;99.90;;;;;;5072623;28;20233;-78
2022/10/09 01:00:25;;;;;;;10.87;10.07;;;6.10;99.90;;;;;;5055190;28;20173;-79
2022/10/09 01:02:52;;;;;;;11.37;9.47;;;6.10;99.90;;;;;;5072862;28;20216;-79
2022/10/09 01:05:21;;;;;;;9.07;8.47;;;6.00;99.90;;;;;;5072710;28;20180;-79
2022/10/09 01:07:57;;;;;;;12.17;11.37;;;6.00;99.90;;;;;;5072581;28;20201;-77
2022/10/09 01:10:32;;;;;;;11.30;10.57;;;6.00;99.90;;;;;;5057029;28;20219;-79
2022/10/09 01:13:11;;;;;;;12.63;11.70;;;5.90;99.90;;;;;;5075060;28;20197;-78
2022/10/09 01:15:47;;;;;;;18.80;17.70;;;5.80;99.90;;;;;;5074036;28;20203;-77
2022/10/09 01:18:56;;;;;;;49.90;47.33;;;5.80;99.90;;;;;;5071581;28;20208;-78
2022/10/09 01:21:32;;;;;;;60.37;56.73;;;5.90;99.90;;;;;;5054626;28;20977;-77
2022/10/09 01:24:14;;;;;;;50.40;47.63;;;5.80;99.90;;;;;;5070629;28;20258;-78
2022/10/09 01:27:13;;;;;;;55.93;52.90;;;5.80;99.90;;;;;;5053829;28;20181;-80
2022/10/09 01:29:47;;;;;;;43.97;41.67;;;5.80;99.90;;;;;;5053301;28;20192;-78
2022/10/09 01:32:17;;;;;;;53.73;50.73;;;5.90;99.90;;;;;;5053872;28;20587;-78
2022/10/09 01:34:44;;;;;;;48.23;45.63;;;5.80;99.90;;;;;;5053805;28;20230;-78
2022/10/09 01:37:13;;;;;;;44.07;41.33;;;5.80;99.90;;;;;;5053701;28;20178;-78
2022/10/09 01:39:41;;;;;;;54.07;50.83;;;5.80;99.90;;;;;;5067915;28;20212;-77
2022/10/09 01:42:08;;;;;;;53.17;50.00;;;5.80;99.90;;;;;;5084579;28;20217;-78
2022/10/09 01:44:34;;;;;;;62.70;59.27;;;5.70;99.90;;;;;;5072483;28;20272;-79
2022/10/09 01:47:01;;;;;;;53.73;50.83;;;5.70;99.90;;;;;;5055081;28;20205;-79
2022/10/09 01:49:41;;;;;;;50.73;48.03;;;5.70;99.90;;;;;;5058276;28;20185;-79
2022/10/09 01:52:32;;;;;;;28.77;27.07;;;5.70;99.90;;;;;;5055224;28;20212;-78
2022/10/09 01:55:14;;;;;;;22.90;21.53;;;5.70;99.90;;;;;;5038207;28;20267;-79
2022/10/09 01:57:51;;;;;;;23.63;22.03;;;5.70;99.90;;;;;;5040143;28;20220;-79
2022/10/09 02:00:18;;;;;;;42.47;40.23;;;5.70;99.90;;;;;;5057633;28;20588;-80
2022/10/09 02:02:45;;;;;;;46.50;43.77;;;5.60;99.90;;;;;;5059095;28;20280;-77
2022/10/09 02:05:18;;;;;;;27.77;25.97;;;5.60;99.90;;;;;;5058027;28;20174;-79
2022/10/09 02:07:44;;;;;;;58.20;54.90;;;5.50;99.90;;;;;;5058660;28;20596;-78
2022/10/09 02:10:12;;;;;;;42.00;39.67;;;5.50;99.90;;;;;;5068292;28;20185;-79
2022/10/09 02:12:44;;;;;;;43.07;40.43;;;5.50;99.90;;;;;;5074114;28;20590;-78
2022/10/09 02:15:10;;;;;;;25.77;24.07;;;5.50;99.90;;;;;;5075643;28;20178;-78
2022/10/09 02:17:41;;;;;;;35.30;33.13;;;5.50;99.90;;;;;;5078338;28;20280;-78
2022/10/09 02:20:24;;;;;;;69.43;65.70;;;5.50;99.90;;;;;;5061450;28;20178;-79
2022/10/09 02:22:51;;;;;;;47.33;44.37;;;5.50;99.90;;;;;;5081429;23;20221;-78
2022/10/09 02:25:18;;;;;;;48.83;45.67;;;5.50;99.90;;;;;;5075797;28;20250;-79
2022/10/09 02:27:45;;;;;;;76.30;71.57;;;5.50;99.90;;;;;;5074770;28;20177;-79
2022/10/09 02:30:13;;;;;;;90.83;85.50;;;5.50;99.90;;;;;;5075130;28;20176;-79
2022/10/09 02:32:39;;;;;;;46.00;43.40;;;5.50;99.90;;;;;;5079126;28;20300;-79
2022/10/09 02:35:05;;;;;;;78.37;73.83;;;5.50;99.90;;;;;;5059268;28;20209;-81
2022/10/09 02:37:31;;;;;;;77.70;72.77;;;5.50;99.90;;;;;;5058081;28;20192;-79
2022/10/09 02:39:56;;;;;;;25.37;23.83;;;5.40;99.90;;;;;;5076282;28;20198;-80
2022/10/09 02:42:24;;;;;;;26.27;24.73;;;5.40;99.90;;;;;;5076052;28;20716;-79
2022/10/09 02:44:51;;;;;;;16.53;15.30;;;5.40;99.90;;;;;;5057637;28;20170;-80
2022/10/09 02:47:17;;;;;;;25.83;24.10;;;5.40;99.90;;;;;;5058189;28;20182;-80
2022/10/09 02:49:42;;;;;;;34.70;32.90;;;5.40;99.90;;;;;;5064084;28;20247;-80
2022/10/09 02:52:08;;;;;;;22.47;21.20;;;5.40;99.90;;;;;;5076869;28;20185;-80
2022/10/09 02:54:34;;;;;;;23.57;22.17;;;5.30;99.90;;;;;;5077149;28;20189;-79
2022/10/09 02:57:00;;;;;;;28.00;26.33;;;5.30;99.90;;;;;;5075624;28;20193;-80
2022/10/09 02:59:26;;;;;;;47.43;44.47;;;5.30;99.90;;;;;;5058936;28;20213;-80
2022/10/09 03:01:51;;;;;;;71.17;67.47;;;5.30;99.90;;;;;;5076529;28;20234;-80
2022/10/09 03:04:17;;;;;;;16.10;14.70;;;5.30;99.90;;;;;;5077956;28;20315;-79
2022/10/09 03:06:43;;;;;;;14.03;13.13;;;5.30;99.90;;;;;;5058859;28;20186;-80
2022/10/09 03:09:09;;;;;;;30.90;29.20;;;5.30;99.90;;;;;;5058177;28;20189;-80
2022/10/09 03:11:35;;;;;;;24.80;23.40;;;5.30;99.90;;;;;;5076682;28;20197;-79
2022/10/09 03:14:00;;;;;;;24.67;23.17;;;5.20;99.90;;;;;;5061640;28;20194;-80
2022/10/09 03:16:26;;;;;;;27.27;25.57;;;5.10;99.90;;;;;;5061253;28;20220;-80
2022/10/09 03:18:52;;;;;;;26.27;24.77;;;5.10;99.90;;;;;;5078829;28;20202;-80
2022/10/09 03:21:21;;;;;;;21.17;19.90;;;5.10;99.90;;;;;;5061013;28;20563;-80
2022/10/09 03:23:47;;;;;;;23.40;22.17;;;5.00;99.90;;;;;;5058330;28;20209;-80
2022/10/09 03:26:16;;;;;;;17.80;16.73;;;5.00;99.90;;;;;;5076722;28;20186;-79
2022/10/09 03:28:45;;;;;;;26.77;25.27;;;5.00;99.90;;;;;;5057110;28;20228;-80
2022/10/09 03:31:11;;;;;;;16.00;15.00;;;5.00;99.90;;;;;;5057470;28;20260;-78
2022/10/09 03:33:37;;;;;;;17.60;16.60;;;4.90;99.90;;;;;;5053869;28;20223;-78
2022/10/09 03:36:06;;;;;;;23.13;21.83;;;4.90;99.90;;;;;;5061168;28;20178;-80
2022/10/09 03:38:32;;;;;;;18.33;17.13;;;4.80;99.90;;;;;;5076130;28;20248;-80
2022/10/09 03:40:59;;;;;;;29.70;28.13;;;4.80;99.90;;;;;;5075702;28;20181;-80
2022/10/09 03:43:25;;;;;;;29.57;27.57;;;4.80;99.90;;;;;;5057261;28;20193;-80
2022/10/09 03:45:51;;;;;;;28.27;26.47;;;4.80;99.90;;;;;;5057570;28;20189;-80
2022/10/09 03:48:17;;;;;;;27.13;25.33;;;4.70;99.90;;;;;;5056053;28;20646;-79
2022/10/09 03:50:43;;;;;;;26.00;24.47;;;4.70;99.90;;;;;;5074115;28;20202;-80
2022/10/09 03:53:10;;;;;;;17.23;16.03;;;4.70;99.90;;;;;;5071434;28;20306;-80
2022/10/09 03:55:36;;;;;;;15.63;14.60;;;4.70;99.90;;;;;;5072823;28;20197;-80
2022/10/09 03:58:02;;;;;;;16.07;15.10;;;4.70;99.90;;;;;;5073522;28;20201;-79
2022/10/09 04:00:29;;;;;;;19.13;18.03;;;4.60;99.90;;;;;;5082907;28;20182;-80
2022/10/09 04:02:54;;;;;;;19.87;18.73;;;4.60;99.90;;;;;;5068419;28;20224;-79
2022/10/09 04:05:20;;;;;;;24.50;23.20;;;4.60;99.90;;;;;;5083920;28;20211;-79
2022/10/09 04:07:46;;;;;;;21.80;20.57;;;4.50;99.90;;;;;;5068235;28;20181;-79
2022/10/09 04:10:12;;;;;;;25.20;23.80;;;4.50;99.90;;;;;;5059478;28;20174;-79
2022/10/09 04:12:38;;;;;;;27.83;25.87;;;4.50;99.90;;;;;;5074999;28;20205;-80
2022/10/09 04:15:05;;;;;;;25.50;23.77;;;4.50;99.90;;;;;;5075707;28;20196;-80
2022/10/09 04:17:30;;;;;;;22.67;21.17;;;4.50;99.90;;;;;;5074881;28;20227;-80
2022/10/09 04:19:56;;;;;;;24.23;22.87;;;4.40;99.90;;;;;;5057573;28;20701;-80
2022/10/09 04:22:22;;;;;;;30.47;28.57;;;4.40;99.90;;;;;;5074914;28;20193;-80
2022/10/09 04:24:48;;;;;;;19.40;18.27;;;4.40;99.90;;;;;;5074379;28;20553;-80
2022/10/09 04:27:14;;;;;;;12.70;11.90;;;4.40;99.90;;;;;;5057320;28;20178;-81
2022/10/09 04:29:40;;;;;;;13.53;12.73;;;4.40;99.90;;;;;;5074332;28;20182;-81
2022/10/09 04:32:06;;;;;;;16.07;14.63;;;4.30;99.90;;;;;;5075253;28;20254;-80
2022/10/09 04:34:32;;;;;;;16.57;15.37;;;4.20;99.90;;;;;;5056579;28;20234;-80
2022/10/09 04:36:59;;;;;;;18.73;17.50;;;4.20;99.90;;;;;;5056574;28;20596;-80
2022/10/09 04:39:25;;;;;;;25.20;23.60;;;4.20;99.90;;;;;;5061300;28;20221;-79
2022/10/09 04:41:51;;;;;;;39.30;36.93;;;4.20;99.90;;;;;;5066494;28;20182;-79
2022/10/09 04:44:17;;;;;;;59.63;56.07;;;4.10;99.90;;;;;;5053309;28;20194;-78
2022/10/09 04:46:42;;;;;;;39.73;37.53;;;4.10;99.90;;;;;;5053158;28;20243;-79
2022/10/09 04:49:13;;;;;;;33.00;30.97;;;4.10;99.90;;;;;;5054592;28;20540;-80
2022/10/09 04:51:40;;;;;;;29.63;27.73;;;4.10;99.90;;;;;;5053697;28;20188;-80
2022/10/09 04:54:06;;;;;;;30.20;28.50;;;4.10;99.90;;;;;;5053732;28;20198;-80
2022/10/09 04:56:32;;;;;;;29.13;27.37;;;4.10;99.90;;;;;;5071900;28;20251;-80
2022/10/09 04:58:58;;;;;;;35.70;33.73;;;4.10;99.90;;;;;;5071414;28;20209;-80
2022/10/09 05:01:26;;;;;;;35.70;33.27;;;4.10;99.90;;;;;;5073801;28;20558;-81
2022/10/09 05:03:52;;;;;;;34.50;32.23;;;4.10;99.90;;;;;;5064078;28;20196;-81
2022/10/09 05:06:20;;;;;;;34.77;32.83;;;4.10;99.90;;;;;;5056878;28;20197;-81
2022/10/09 05:08:46;;;;;;;29.20;27.50;;;4.10;99.90;;;;;;5074152;28;20185;-82
2022/10/09 05:11:21;;;;;;;30.27;28.23;;;4.10;99.90;;;;;;5073947;28;20666;-80
2022/10/09 05:13:52;;;;;;;20.13;18.90;;;4.00;99.90;;;;;;5073794;28;20200;-80
2022/10/09 05:16:24;;;;;;;18.40;17.27;;;4.00;99.90;;;;;;5074738;28;20536;-80
2022/10/09 05:18:56;;;;;;;21.13;19.73;;;4.00;99.90;;;;;;5055730;28;20209;-80
2022/10/09 05:21:23;;;;;;;21.73;20.20;;;4.00;99.90;;;;;;5057752;28;20180;-80
2022/10/09 05:23:49;;;;;;;28.13;26.33;;;3.90;99.90;;;;;;5077241;28;20209;-80
2022/10/09 05:26:17;;;;;;;22.37;20.97;;;3.90;99.90;;;;;;5077864;28;20264;-80
2022/10/09 05:28:43;;;;;;;26.67;25.13;;;3.90;99.90;;;;;;5078065;28;20177;-80
2022/10/09 05:31:18;;;;;;;17.00;15.77;;;3.90;99.90;;;;;;5061282;28;20185;-80
2022/10/09 05:33:44;;;;;;;16.73;15.67;;;3.90;99.90;;;;;;5060323;28;20685;-80
2022/10/09 05:36:10;;;;;;;18.43;17.13;;;3.90;99.90;;;;;;5077998;28;20177;-81
2022/10/09 05:38:36;;;;;;;17.53;16.53;;;3.90;99.90;;;;;;5059322;28;20216;-79
2022/10/09 05:41:05;;;;;;;34.10;32.00;;;3.90;99.90;;;;;;5059212;28;20527;-80
2022/10/09 05:43:33;;;;;;;52.63;49.83;;;3.80;99.90;;;;;;5084156;28;20281;-79
2022/10/09 05:46:10;;;;;;;38.53;36.27;;;3.80;99.90;;;;;;5060468;28;20173;-80
2022/10/09 05:48:38;;;;;;;29.13;27.03;;;3.90;99.90;;;;;;5062592;28;20249;-80
2022/10/09 05:51:12;;;;;;;31.20;29.37;;;3.80;99.90;;;;;;5063012;28;20260;-80
2022/10/09 05:53:39;;;;;;;37.77;35.37;;;3.90;99.90;;;;;;5063786;28;20201;-80
2022/10/09 05:56:23;;;;;;;29.97;28.17;;;3.80;99.90;;;;;;5065223;28;20181;-80
2022/10/09 05:58:52;;;;;;;24.83;23.37;;;3.80;99.90;;;;;;5079958;28;20209;-81
2022/10/09 06:01:19;;;;;;;25.77;23.47;;;3.80;99.90;;;;;;5060548;28;20204;-79
2022/10/09 06:03:50;;;;;;;29.13;26.40;;;3.80;99.90;;;;;;5077231;28;20244;-67
2022/10/09 06:06:17;;;;;;;26.73;24.77;;;3.80;99.90;;;;;;5057153;28;20281;-67
2022/10/09 06:08:43;;;;;;;23.40;21.77;;;3.90;99.90;;;;;;5069798;28;20268;-68
2022/10/09 06:11:15;;;;;;;23.20;21.50;;;3.90;99.90;;;;;;5073318;28;20285;-67
2022/10/09 06:13:42;;;;;;;19.83;18.40;;;4.00;99.90;;;;;;5073063;28;20281;-67
2022/10/09 06:16:10;;;;;;;23.83;22.03;;;4.10;99.90;;;;;;5073224;28;20185;-72
2022/10/09 06:18:37;;;;;;;16.53;15.13;;;4.10;99.90;;;;;;5072836;28;20301;-72
2022/10/09 06:21:03;;;;;;;17.60;16.37;;;4.20;99.90;;;;;;5054831;28;20169;-72
2022/10/09 06:23:30;;;;;;;21.67;20.00;;;4.30;99.90;;;;;;5073338;28;20221;-73
2022/10/09 06:26:01;;;;;;;24.50;22.67;;;4.30;99.90;;;;;;5073222;28;20185;-72
2022/10/09 06:28:28;;;;;;;24.20;22.77;;;4.40;99.90;;;;;;5072762;28;20188;-73
2022/10/09 06:31:06;;;;;;;35.87;33.87;;;4.50;99.90;;;;;;5073130;28;20972;-72
2022/10/09 06:33:34;;;;;;;30.73;28.97;;;4.50;99.90;;;;;;5072039;28;20216;-72
2022/10/09 06:36:04;;;;;;;22.37;21.13;;;4.60;99.90;;;;;;5072987;28;20193;-73
2022/10/09 06:38:33;;;;;;;19.27;18.00;;;4.80;99.90;;;;;;5054746;28;20206;-73
2022/10/09 06:41:04;;;;;;;26.17;24.57;;;5.00;99.90;;;;;;5072569;28;20269;-73
2022/10/09 06:43:30;;;;;;;17.53;16.43;;;5.20;99.90;;;;;;5072801;28;20225;-73
2022/10/09 06:45:58;;;;;;;14.27;13.17;;;5.40;99.90;;;;;;5072766;28;20186;-73
2022/10/09 06:48:24;;;;;;;13.93;12.20;;;5.60;99.90;;;;;;5054323;28;20189;-72
2022/10/09 06:50:50;;;;;;;32.60;30.67;;;6.00;99.90;;;;;;5054168;28;20547;-73
2022/10/09 06:53:16;;;;;;;49.50;46.67;;;6.70;99.90;;;;;;5072293;28;20201;-74
2022/10/09 06:55:54;;;;;;;16.57;15.53;;;7.50;99.90;;;;;;5072360;28;20178;-74
2022/10/09 06:58:20;;;;;;;13.60;12.67;;;8.40;99.90;;;;;;5054291;28;20288;-73
2022/10/09 07:00:46;;;;;;;24.30;22.80;;;8.90;99.90;;;;;;5055823;28;20585;-72
2022/10/09 07:03:13;;;;;;;16.63;15.53;;;9.20;99.90;;;;;;5073370;28;20201;-73
2022/10/09 07:05:38;;;;;;;26.00;24.13;;;9.50;99.90;;;;;;5072472;28;20674;-74
2022/10/09 07:08:04;;;;;;;18.50;16.87;;;9.80;99.90;;;;;;5072018;28;20190;-73
2022/10/09 07:10:30;;;;;;;26.57;24.97;;;10.20;99.90;;;;;;5054259;28;20182;-73
2022/10/09 07:12:56;;;;;;;17.23;15.83;;;10.40;99.90;;;;;;5072050;28;20243;-73
2022/10/09 07:15:22;;;;;;;20.70;18.90;;;10.60;99.90;;;;;;5070813;28;20177;-73
2022/10/09 07:17:47;;;;;;;18.93;17.60;;;10.80;99.90;;;;;;5070850;28;20692;-73
2022/10/09 07:20:13;;;;;;;10.40;9.70;;;11.00;99.90;;;;;;5072061;28;20700;-73
2022/10/09 07:22:39;;;;;;;8.00;7.30;;;11.40;99.90;;;;;;5071341;28;20213;-74
2022/10/09 07:25:06;;;;;;;11.27;10.53;;;11.90;99.90;;;;;;5055018;28;20541;-73
2022/10/09 07:27:34;;;;;;;22.23;20.53;;;12.30;99.90;;;;;;5054457;28;20600;-74
2022/10/09 07:30:00;;;;;;;29.93;28.30;;;12.70;99.90;;;;;;5054813;28;20239;-73
2022/10/09 07:32:25;;;;;;;21.47;20.00;;;13.00;99.90;;;;;;5072277;28;20201;-73
2022/10/09 07:34:51;;;;;;;16.73;15.67;;;13.20;99.90;;;;;;5054824;28;20736;-73
2022/10/09 07:37:17;;;;;;;13.50;12.40;;;13.50;99.90;;;;;;5072034;28;20188;-73
2022/10/09 07:39:43;;;;;;;9.43;7.87;;;13.50;99.90;;;;;;5072630;28;20644;-76
2022/10/09 07:42:09;;;;;;;8.27;7.67;;;13.60;99.90;;;;;;5071649;28;20264;-76
2022/10/09 07:44:35;;;;;;;8.23;7.30;;;14.00;99.90;;;;;;5054178;28;20654;-77
2022/10/09 07:47:01;;;;;;;10.10;9.10;;;14.20;99.90;;;;;;5054613;28;20235;-76
2022/10/09 07:49:27;;;;;;;19.17;18.00;;;14.30;99.90;;;;;;5073124;28;20188;-76
2022/10/09 07:51:53;;;;;;;30.77;28.60;;;14.50;99.90;;;;;;5072927;28;20575;-76
2022/10/09 07:54:19;;;;;;;54.73;51.63;;;14.60;99.90;;;;;;5071035;28;20618;-76
2022/10/09 07:56:45;;;;;;;49.33;46.73;;;15.00;99.90;;;;;;5072455;28;20184;-76
2022/10/09 07:59:13;;;;;;;47.00;44.20;;;15.10;99.90;;;;;;5054581;28;20210;-76
2022/10/09 08:01:40;;;;;;;55.30;52.20;;;15.20;99.90;;;;;;5055549;28;20177;-76
2022/10/09 08:04:06;;;;;;;59.63;56.20;;;15.40;99.90;;;;;;5071895;28;20193;-76
2022/10/09 08:06:33;;;;;;;57.13;53.83;;;15.60;99.90;;;;;;5053982;28;20655;-76
2022/10/09 08:09:01;;;;;;;42.83;40.57;;;15.80;99.90;;;;;;5072989;28;20178;-75
2022/10/09 08:11:28;;;;;;;44.43;42.03;;;16.20;99.90;;;;;;5071833;28;20204;-75
2022/10/09 08:13:54;;;;;;;46.77;44.27;;;15.80;99.90;;;;;;5071680;28;20564;-75
2022/10/09 08:16:21;;;;;;;44.90;42.33;;;15.90;99.90;;;;;;5071872;28;20186;-77
2022/10/09 08:18:47;;;;;;;53.03;50.07;;;16.00;99.90;;;;;;5070925;28;20654;-74
2022/10/09 08:21:16;;;;;;;77.30;73.30;;;15.60;99.90;;;;;;5071222;28;20261;-74
2022/10/09 08:23:42;;;;;;;91.07;86.53;;;15.30;99.90;;;;;;5100901;22;20227;-71
2022/10/09 08:26:18;;;;;;;74.63;70.77;;;15.20;99.90;;;;;;5090086;28;20188;-71
2022/10/09 08:28:52;;;;;;;84.13;79.63;;;15.40;99.90;;;;;;5090840;28;20180;-71
2022/10/09 08:31:19;;;;;;;65.67;62.27;;;15.60;99.90;;;;;;5091448;28;20271;-71
2022/10/09 08:33:45;;;;;;;69.63;65.93;;;15.80;99.90;;;;;;5079860;28;20218;-73
2022/10/09 08:36:14;;;;;;;33.37;31.50;;;16.10;99.90;;;;;;5071625;28;20193;-71
2022/10/09 08:38:40;;;;;;;34.83;32.87;;;16.30;99.90;;;;;;5070655;28;20347;-71
2022/10/09 08:41:24;;;;;;;27.17;25.67;;;16.50;99.90;;;;;;5070905;28;20263;-71
2022/10/09 08:43:59;;;;;;;19.13;17.97;;;16.90;99.90;;;;;;5070479;28;20686;-72
2022/10/09 08:46:33;;;;;;;7.93;7.27;;;17.20;99.90;;;;;;5071419;28;20306;-72
2022/10/09 08:49:01;;;;;;;6.27;5.63;;;17.50;99.90;;;;;;5090631;28;20189;-71
2022/10/09 08:51:32;;;;;;;6.80;6.30;;;17.50;99.90;;;;;;5090874;28;20205;-71
2022/10/09 08:54:18;;;;;;;6.00;5.60;;;17.50;99.90;;;;;;5090702;28;20205;-70
2022/10/09 08:56:46;;;;;;;7.00;6.40;;;17.80;99.90;;;;;;5090285;28;20322;-71
2022/10/09 08:59:12;;;;;;;7.20;6.70;;;17.80;99.90;;;;;;5090615;28;20208;-71
2022/10/09 09:02:09;;;;;;;7.30;6.80;;;17.50;99.90;;;;;;5077719;28;20550;-72
2022/10/09 09:04:57;;;;;;;9.47;6.87;;;17.50;99.90;;;;;;5070304;28;20926;-71
2022/10/09 09:07:42;;;;;;;6.03;5.63;;;17.90;99.90;;;;;;5070300;28;20219;-71
2022/10/09 09:10:39;;;;;;;6.67;6.13;;;18.10;99.90;;;;;;5070622;28;20216;-72
2022/10/09 09:13:29;;;;;;;6.33;5.93;;;18.30;99.90;;;;;;5069408;28;20208;-72
2022/10/09 09:15:58;;;;;;;8.97;8.37;;;18.70;99.90;;;;;;5071090;28;20552;-72
2022/10/09 09:18:33;;;;;;;12.00;11.07;;;19.10;99.90;;;;;;5078985;28;20192;-71
2022/10/09 09:21:17;;;;;;;15.73;14.83;;;19.20;99.90;;;;;;5084118;28;20173;-71
2022/10/09 09:23:46;;;;;;;14.37;13.50;;;19.40;99.90;;;;;;5090048;28;20563;-72
2022/10/09 09:26:17;;;;;;;20.97;19.67;;;19.80;99.90;;;;;;5090502;28;20177;-71
2022/10/09 09:28:45;;;;;;;25.43;24.03;;;20.60;99.90;;;;;;5090028;28;20192;-72
2022/10/09 09:31:22;;;;;;;21.53;19.93;;;20.60;99.90;;;;;;5089443;28;20180;-72
2022/10/09 09:33:54;;;;;;;6.97;6.53;;;20.90;99.90;;;;;;5089758;28;20318;-71
2022/10/09 09:36:28;;;;;;;6.60;6.07;;;21.40;99.40;;;;;;5083680;28;20786;-72
2022/10/09 09:38:54;;;;;;;6.10;5.60;;;21.30;97.10;;;;;;5089610;28;20215;-72
2022/10/09 09:41:19;;;;;;;7.87;5.00;;;21.00;97.30;;;;;;5088668;28;20264;-71
2022/10/09 09:43:45;;;;;;;6.00;5.63;;;20.70;97.80;;;;;;5089671;28;20196;-72
2022/10/09 09:46:19;;;;;;;7.07;6.37;;;20.20;96.10;;;;;;5087995;28;20169;-72
2022/10/09 09:48:47;;;;;;;7.60;7.20;;;20.00;97.00;;;;;;5069778;28;20240;-71
2022/10/09 09:51:20;;;;;;;5.03;4.83;;;19.80;96.20;;;;;;5075281;28;20181;-71
2022/10/09 09:53:54;;;;;;;4.43;4.03;;;19.70;96.80;;;;;;5089363;28;20580;-72
2022/10/09 09:56:33;;;;;;;4.20;3.83;;;19.60;97.30;;;;;;5089954;28;20191;-72
2022/10/09 09:58:59;;;;;;;5.53;5.13;;;19.90;97.10;;;;;;5087670;28;20271;-72
2022/10/09 10:01:27;;;;;;;8.00;7.27;;;20.50;95.60;;;;;;5090060;28;20181;-73
2022/10/09 10:03:58;;;;;;;6.03;5.73;;;20.90;94.40;;;;;;5089874;28;20204;-75
2022/10/09 10:06:29;;;;;;;5.30;4.80;;;20.70;94.10;;;;;;5086369;28;20185;-72
2022/10/09 10:09:04;;;;;;;6.40;6.10;;;20.70;93.30;;;;;;5085923;28;20184;-73
2022/10/09 10:11:33;;;;;;;6.90;6.40;;;20.40;93.00;;;;;;5093102;28;20264;-72
2022/10/09 10:14:06;;;;;;;5.40;5.10;;;20.60;93.70;;;;;;5093414;28;20212;-72
2022/10/09 10:16:36;;;;;;;7.17;6.67;;;20.50;92.90;;;;;;5094107;28;20185;-72
2022/10/09 10:19:03;;;;;;;10.40;6.93;;;20.30;93.60;;;;;;5091984;28;20291;-72
2022/10/09 10:21:39;;;;;;;7.97;6.40;;;20.60;93.40;;;;;;5092644;28;20177;-72
2022/10/09 10:24:12;;;;;;;5.47;5.17;;;21.40;92.60;;;;;;5092481;28;20212;-72
2022/10/09 10:27:01;;;;;;;6.50;5.97;;;21.40;91.30;;;;;;5090741;28;20658;-71
2022/10/09 10:29:37;;;;;;;4.90;4.57;;;21.00;91.70;;;;;;5072440;28;20181;-71
2022/10/09 10:32:12;;;;;;;4.00;3.70;;;21.30;90.80;;;;;;5072169;28;20181;-71
2022/10/09 10:34:46;;;;;;;4.13;3.83;;;21.30;91.20;;;;;;5073141;28;20300;-72
2022/10/09 10:37:12;;;;;;;4.23;3.93;;;21.50;90.30;;;;;;5073106;28;20567;-71
2022/10/09 10:39:38;;;;;;;4.43;3.70;;;21.40;90.50;;;;;;5073015;28;20216;-73
2022/10/09 10:42:13;;;;;;;6.20;3.83;;;21.50;90.00;;;;;;5085248;28;20183;-72
2022/10/09 10:44:55;;;;;;;4.43;4.13;;;21.60;89.30;;;;;;5076824;28;20242;-72
2022/10/09 10:47:25;;;;;;;4.05;3.65;;;21.60;89.50;;;;;;5071376;28;20181;-71
2022/10/09 10:49:50;;;;;;;4.30;4.00;;;22.00;88.70;;;;;;5086691;28;20684;-72
2022/10/09 10:52:33;;;;;;;4.00;3.70;;;22.50;87.90;;;;;;5093044;28;20193;-73
2022/10/09 10:55:13;;;;;;;5.40;4.88;;;23.60;84.60;;;;;;5092242;28;20208;-72
2022/10/09 10:57:50;;;;;;;7.40;6.70;;;23.60;82.70;;;;;;5091956;28;20299;-73
2022/10/09 11:00:17;;;;;;;8.50;7.90;;;23.10;82.10;;;;;;5092767;28;20240;-72
2022/10/09 11:03:06;;;;;;;4.60;4.30;;;23.30;80.90;;;;;;5092457;28;20205;-73
2022/10/09 11:05:50;;;;;;;6.90;6.40;;;23.20;82.50;;;;;;5092572;28;20609;-71
2022/10/09 11:08:34;;;;;;;5.50;5.30;;;23.00;82.50;;;;;;5090224;28;20193;-75
2022/10/09 11:11:22;;;;;;;6.25;5.97;;;23.20;81.70;;;;;;5081481;28;20272;-75
2022/10/09 11:14:07;;;;;;;5.30;5.00;;;22.70;80.60;;;;;;5072102;28;20205;-71
2022/10/09 11:16:53;;;;;;;4.57;4.38;;;22.60;81.40;;;;;;5072504;28;20264;-71
2022/10/09 11:19:37;;;;;;;5.07;4.78;;;23.00;80.80;;;;;;5071892;28;20201;-72
2022/10/09 11:22:04;;;;;;;7.05;6.55;;;23.20;80.20;;;;;;5083898;28;20184;-71
2022/10/09 11:25:06;;;;;;;7.32;6.50;;;23.20;78.90;;;;;;5093810;28;20208;-72
2022/10/09 11:27:49;;;;;;;5.20;4.88;;;22.60;79.60;;;;;;5091425;28;20659;-70
2022/10/09 11:30:17;;;;;;;5.68;5.22;;;22.30;81.30;;;;;;5090881;28;20184;-72
2022/10/09 11:33:09;;;;;;;4.17;3.93;;;22.00;80.20;;;;;;5083606;28;20238;-72
2022/10/09 11:35:50;;;;;;;5.40;5.10;;;22.10;81.70;;;;;;5091419;28;20549;-73
2022/10/09 11:38:19;;;;;;;4.40;4.10;;;22.70;79.00;;;;;;5091226;28;20207;-70
2022/10/09 11:40:45;;;;;;;6.88;5.60;;;23.40;78.40;;;;;;5093108;28;20231;-72
2022/10/09 11:43:27;;;;;;;7.00;6.60;;;23.70;75.50;;;;;;5091488;28;20227;-71
2022/10/09 11:46:26;;;;;;;6.78;6.43;;;23.70;74.90;;;;;;5090092;28;20188;-72
2022/10/09 11:49:07;;;;;;;5.95;5.65;;;24.30;74.30;;;;;;5090560;28;20295;-72
2022/10/09 11:51:42;;;;;;;6.13;5.72;;;23.50;74.80;;;;;;5091734;28;20176;-71
2022/10/09 11:54:13;;;;;;;7.90;7.43;;;23.30;75.10;;;;;;5090032;28;20208;-71
2022/10/09 11:56:52;;;;;;;6.47;6.07;;;23.00;75.90;;;;;;5089035;28;20181;-71
2022/10/09 11:59:27;;;;;;;7.45;6.90;;;23.30;74.80;;;;;;5089439;28;20281;-72
2022/10/09 12:01:53;;;;;;;6.05;5.75;;;23.30;75.90;;;;;;5090838;28;20189;-69
2022/10/09 12:04:27;;;;;;;6.65;6.20;;;23.80;74.20;;;;;;5090459;28;20196;-69
2022/10/09 12:07:01;;;;;;;6.72;5.90;;;23.70;74.50;;;;;;5091341;28;20233;-70
2022/10/09 12:09:31;;;;;;;9.35;8.75;;;24.30;74.50;;;;;;5091626;28;20238;-67
2022/10/09 12:12:06;;;;;;;8.98;8.48;;;24.30;72.60;;;;;;5091658;28;20212;-69
2022/10/09 12:14:34;;;;;;;8.77;8.15;;;24.00;72.60;;;;;;5091240;28;20640;-68
2022/10/09 12:17:00;;;;;;;10.27;9.57;;;23.70;73.50;;;;;;5092856;28;20276;-69
2022/10/09 12:19:38;;;;;;;7.00;6.60;;;23.90;72.70;;;;;;5081609;28;20296;-70
2022/10/09 12:22:16;;;;;;;8.80;8.18;;;23.70;73.60;;;;;;5071008;28;20234;-70
2022/10/09 12:24:49;;;;;;;7.53;6.88;;;23.60;73.30;;;;;;5070247;28;20213;-69
2022/10/09 12:27:24;;;;;;;7.93;7.53;;;22.90;74.10;;;;;;5077329;28;20230;-69
2022/10/09 12:29:55;;;;;;;6.15;5.75;;;23.00;74.70;;;;;;5091501;28;20267;-69
2022/10/09 12:32:29;;;;;;;5.10;4.85;;;23.40;74.20;;;;;;5089822;28;20558;-71
2022/10/09 12:34:55;;;;;;;6.32;5.82;;;23.30;73.60;;;;;;5091360;28;20655;-71
2022/10/09 12:37:31;;;;;;;9.50;9.10;;;23.50;73.80;;;;;;5091213;28;20207;-68
2022/10/09 12:40:14;;;;;;;11.43;10.93;;;24.60;71.20;;;;;;5091824;28;20220;-69
2022/10/09 12:42:41;;;;;;;15.75;14.77;;;25.10;69.00;;;;;;5070061;28;20173;-70
2022/10/09 12:45:18;;;;;;;21.98;20.80;;;26.00;67.20;;;;;;5071199;28;20178;-70
2022/10/09 12:47:44;;;;;;;24.92;23.70;;;25.20;66.20;;;;;;5069607;28;20201;-70
2022/10/09 12:50:23;;;;;;;23.40;22.20;;;25.50;64.90;;;;;;5070028;28;20614;-70
2022/10/09 12:53:01;;;;;;;17.00;16.20;;;24.60;67.40;;;;;;5072338;28;20296;-69
2022/10/09 12:55:30;;;;;;;11.70;11.00;;;24.10;68.40;;;;;;5082373;28;20188;-70